sensor_id;sensor_type;location;lat;lon;timestamp;P1;durP1;ratioP1;P2;durP2;ratioP2
17363;SDS011;8799;43.594;13.526;2023-12-20T00:00:10;8.33;;;3.40;;
17363;SDS011;8799;43.594;13.526;2023-12-20T00:02:38;5.50;;;2.40;;
17363;SDS011;8799;43.594;13.526;2023-12-20T00:05:10;3.40;;;2.30;;
17363;SDS011;8799;43.594;13.526;2023-12-20T00:07:38;4.60;;;2.43;;
17363;SDS011;8799;43.594;13.526;2023-12-20T00:10:05;4.50;;;2.40;;
17363;SDS011;8799;43.594;13.526;2023-12-20T00:12:34;4.53;;;2.30;;
17363;SDS011;8799;43.594;13.526;2023-12-20T00:15:03;4.57;;;2.77;;
17363;SDS011;8799;43.594;13.526;2023-12-20T00:17:31;3.30;;;2.40;;
17363;SDS011;8799;43.594;13.526;2023-12-20T00:19:59;4.83;;;2.67;;
17363;SDS011;8799;43.594;13.526;2023-12-20T00:22:27;8.07;;;2.73;;
17363;SDS011;8799;43.594;13.526;2023-12-20T00:24:54;4.40;;;2.57;;
17363;SDS011;8799;43.594;13.526;2023-12-20T00:27:22;5.90;;;2.77;;
17363;SDS011;8799;43.594;13.526;2023-12-20T00:29:50;3.90;;;2.37;;
17363;SDS011;8799;43.594;13.526;2023-12-20T00:32:20;4.63;;;2.57;;
17363;SDS011;8799;43.594;13.526;2023-12-20T00:34:48;4.73;;;2.50;;
17363;SDS011;8799;43.594;13.526;2023-12-20T00:37:16;3.73;;;2.30;;
17363;SDS011;8799;43.594;13.526;2023-12-20T00:39:44;6.20;;;2.77;;
17363;SDS011;8799;43.594;13.526;2023-12-20T00:42:12;5.03;;;2.43;;
17363;SDS011;8799;43.594;13.526;2023-12-20T00:44:40;4.37;;;2.70;;
17363;SDS011;8799;43.594;13.526;2023-12-20T00:47:08;7.27;;;2.87;;
17363;SDS011;8799;43.594;13.526;2023-12-20T00:49:38;4.17;;;2.67;;
17363;SDS011;8799;43.594;13.526;2023-12-20T00:52:06;3.03;;;2.03;;
17363;SDS011;8799;43.594;13.526;2023-12-20T00:54:34;5.70;;;2.73;;
17363;SDS011;8799;43.594;13.526;2023-12-20T00:57:02;3.50;;;2.47;;
17363;SDS011;8799;43.594;13.526;2023-12-20T00:59:29;3.90;;;2.20;;
17363;SDS011;8799;43.594;13.526;2023-12-20T01:01:58;4.63;;;2.33;;
17363;SDS011;8799;43.594;13.526;2023-12-20T01:04:26;4.27;;;2.57;;
17363;SDS011;8799;43.594;13.526;2023-12-20T01:06:55;5.73;;;2.60;;
17363;SDS011;8799;43.594;13.526;2023-12-20T01:09:23;5.80;;;2.60;;
17363;SDS011;8799;43.594;13.526;2023-12-20T01:11:51;4.83;;;2.33;;
17363;SDS011;8799;43.594;13.526;2023-12-20T01:14:19;3.93;;;2.50;;
17363;SDS011;8799;43.594;13.526;2023-12-20T01:16:47;4.93;;;2.70;;
17363;SDS011;8799;43.594;13.526;2023-12-20T01:19:15;5.57;;;2.67;;
17363;SDS011;8799;43.594;13.526;2023-12-20T01:21:43;3.00;;;2.20;;
17363;SDS011;8799;43.594;13.526;2023-12-20T01:24:12;3.13;;;2.10;;
17363;SDS011;8799;43.594;13.526;2023-12-20T01:26:40;4.40;;;2.00;;
17363;SDS011;8799;43.594;13.526;2023-12-20T01:29:09;2.33;;;1.83;;
17363;SDS011;8799;43.594;13.526;2023-12-20T01:31:38;9.07;;;2.87;;
17363;SDS011;8799;43.594;13.526;2023-12-20T01:34:06;3.93;;;2.33;;
17363;SDS011;8799;43.594;13.526;2023-12-20T01:36:34;4.03;;;2.47;;
17363;SDS011;8799;43.594;13.526;2023-12-20T01:39:02;4.83;;;2.30;;
17363;SDS011;8799;43.594;13.526;2023-12-20T01:41:30;3.60;;;2.40;;
17363;SDS011;8799;43.594;13.526;2023-12-20T01:43:59;4.57;;;2.40;;
17363;SDS011;8799;43.594;13.526;2023-12-20T01:46:27;3.20;;;2.00;;
17363;SDS011;8799;43.594;13.526;2023-12-20T01:48:55;3.50;;;1.90;;
17363;SDS011;8799;43.594;13.526;2023-12-20T01:51:22;4.73;;;2.20;;
17363;SDS011;8799;43.594;13.526;2023-12-20T01:53:52;4.60;;;2.07;;
17363;SDS011;8799;43.594;13.526;2023-12-20T01:56:21;4.87;;;2.20;;
17363;SDS011;8799;43.594;13.526;2023-12-20T01:58:50;2.90;;;2.00;;
17363;SDS011;8799;43.594;13.526;2023-12-20T02:01:19;4.23;;;2.40;;
17363;SDS011;8799;43.594;13.526;2023-12-20T02:03:47;3.40;;;1.87;;
17363;SDS011;8799;43.594;13.526;2023-12-20T02:06:16;5.30;;;2.17;;
17363;SDS011;8799;43.594;13.526;2023-12-20T02:08:46;3.93;;;2.17;;
17363;SDS011;8799;43.594;13.526;2023-12-20T02:11:14;4.70;;;2.20;;
17363;SDS011;8799;43.594;13.526;2023-12-20T02:13:41;4.10;;;1.90;;
17363;SDS011;8799;43.594;13.526;2023-12-20T02:16:11;5.07;;;2.33;;
17363;SDS011;8799;43.594;13.526;2023-12-20T02:18:39;4.53;;;2.30;;
17363;SDS011;8799;43.594;13.526;2023-12-20T02:21:07;3.07;;;1.90;;
17363;SDS011;8799;43.594;13.526;2023-12-20T02:23:38;3.63;;;1.97;;
17363;SDS011;8799;43.594;13.526;2023-12-20T02:26:06;3.20;;;1.87;;
17363;SDS011;8799;43.594;13.526;2023-12-20T02:28:34;3.60;;;1.80;;
17363;SDS011;8799;43.594;13.526;2023-12-20T02:31:02;3.63;;;2.03;;
17363;SDS011;8799;43.594;13.526;2023-12-20T02:33:30;2.53;;;1.67;;
17363;SDS011;8799;43.594;13.526;2023-12-20T02:35:58;3.50;;;1.97;;
17363;SDS011;8799;43.594;13.526;2023-12-20T02:38:25;4.40;;;2.13;;
17363;SDS011;8799;43.594;13.526;2023-12-20T02:40:54;4.53;;;2.50;;
17363;SDS011;8799;43.594;13.526;2023-12-20T02:43:22;3.93;;;2.00;;
17363;SDS011;8799;43.594;13.526;2023-12-20T02:45:50;3.67;;;2.37;;
17363;SDS011;8799;43.594;13.526;2023-12-20T02:48:17;3.47;;;2.03;;
17363;SDS011;8799;43.594;13.526;2023-12-20T02:50:45;4.23;;;1.90;;
17363;SDS011;8799;43.594;13.526;2023-12-20T02:53:14;3.57;;;1.73;;
17363;SDS011;8799;43.594;13.526;2023-12-20T02:55:41;2.53;;;1.97;;
17363;SDS011;8799;43.594;13.526;2023-12-20T02:58:11;7.03;;;2.60;;
17363;SDS011;8799;43.594;13.526;2023-12-20T03:00:40;2.27;;;1.73;;
17363;SDS011;8799;43.594;13.526;2023-12-20T03:03:08;2.40;;;1.90;;
17363;SDS011;8799;43.594;13.526;2023-12-20T03:05:36;3.10;;;1.80;;
17363;SDS011;8799;43.594;13.526;2023-12-20T03:08:04;3.30;;;2.17;;
17363;SDS011;8799;43.594;13.526;2023-12-20T03:10:31;4.83;;;1.83;;
17363;SDS011;8799;43.594;13.526;2023-12-20T03:13:00;4.40;;;2.00;;
17363;SDS011;8799;43.594;13.526;2023-12-20T03:15:29;4.23;;;1.90;;
17363;SDS011;8799;43.594;13.526;2023-12-20T03:17:57;4.73;;;2.33;;
17363;SDS011;8799;43.594;13.526;2023-12-20T03:20:25;3.10;;;2.10;;
17363;SDS011;8799;43.594;13.526;2023-12-20T03:22:53;3.70;;;2.00;;
17363;SDS011;8799;43.594;13.526;2023-12-20T03:25:21;3.87;;;1.80;;
17363;SDS011;8799;43.594;13.526;2023-12-20T03:27:49;2.77;;;1.70;;
17363;SDS011;8799;43.594;13.526;2023-12-20T03:30:17;4.73;;;1.83;;
17363;SDS011;8799;43.594;13.526;2023-12-20T03:32:46;3.13;;;1.80;;
17363;SDS011;8799;43.594;13.526;2023-12-20T03:35:14;2.80;;;1.60;;
17363;SDS011;8799;43.594;13.526;2023-12-20T03:37:42;2.63;;;1.90;;
17363;SDS011;8799;43.594;13.526;2023-12-20T03:40:10;3.03;;;1.70;;
17363;SDS011;8799;43.594;13.526;2023-12-20T03:42:38;2.87;;;1.93;;
17363;SDS011;8799;43.594;13.526;2023-12-20T03:45:06;2.43;;;1.70;;
17363;SDS011;8799;43.594;13.526;2023-12-20T03:47:34;4.80;;;2.33;;
17363;SDS011;8799;43.594;13.526;2023-12-20T03:50:03;3.73;;;1.83;;
17363;SDS011;8799;43.594;13.526;2023-12-20T03:52:31;3.43;;;1.70;;
17363;SDS011;8799;43.594;13.526;2023-12-20T03:54:59;2.77;;;1.80;;
17363;SDS011;8799;43.594;13.526;2023-12-20T03:57:27;2.07;;;1.70;;
17363;SDS011;8799;43.594;13.526;2023-12-20T03:59:55;3.87;;;2.10;;
17363;SDS011;8799;43.594;13.526;2023-12-20T04:02:23;2.60;;;1.87;;
17363;SDS011;8799;43.594;13.526;2023-12-20T04:04:51;3.43;;;1.70;;
17363;SDS011;8799;43.594;13.526;2023-12-20T04:07:21;2.60;;;1.70;;
17363;SDS011;8799;43.594;13.526;2023-12-20T04:09:48;2.43;;;1.67;;
17363;SDS011;8799;43.594;13.526;2023-12-20T04:12:16;3.07;;;1.93;;
17363;SDS011;8799;43.594;13.526;2023-12-20T04:14:44;2.80;;;1.73;;
17363;SDS011;8799;43.594;13.526;2023-12-20T04:17:12;2.47;;;1.57;;
17363;SDS011;8799;43.594;13.526;2023-12-20T04:19:41;3.07;;;1.90;;
17363;SDS011;8799;43.594;13.526;2023-12-20T04:22:08;2.87;;;1.70;;
17363;SDS011;8799;43.594;13.526;2023-12-20T04:24:37;3.70;;;2.00;;
17363;SDS011;8799;43.594;13.526;2023-12-20T04:27:07;2.87;;;1.90;;
17363;SDS011;8799;43.594;13.526;2023-12-20T04:29:35;2.47;;;1.77;;
17363;SDS011;8799;43.594;13.526;2023-12-20T04:32:04;2.83;;;1.80;;
17363;SDS011;8799;43.594;13.526;2023-12-20T04:34:31;4.83;;;2.03;;
17363;SDS011;8799;43.594;13.526;2023-12-20T04:36:58;4.03;;;1.80;;
17363;SDS011;8799;43.594;13.526;2023-12-20T04:39:28;3.47;;;1.57;;
17363;SDS011;8799;43.594;13.526;2023-12-20T04:41:57;4.20;;;2.00;;
17363;SDS011;8799;43.594;13.526;2023-12-20T04:44:25;2.13;;;1.70;;
17363;SDS011;8799;43.594;13.526;2023-12-20T04:46:53;1.70;;;1.60;;
17363;SDS011;8799;43.594;13.526;2023-12-20T04:49:21;2.47;;;1.80;;
17363;SDS011;8799;43.594;13.526;2023-12-20T04:51:49;3.07;;;1.70;;
17363;SDS011;8799;43.594;13.526;2023-12-20T04:54:17;3.17;;;1.97;;
17363;SDS011;8799;43.594;13.526;2023-12-20T04:56:45;3.17;;;1.53;;
17363;SDS011;8799;43.594;13.526;2023-12-20T04:59:14;3.53;;;1.73;;
17363;SDS011;8799;43.594;13.526;2023-12-20T05:01:43;1.73;;;1.50;;
17363;SDS011;8799;43.594;13.526;2023-12-20T05:04:11;2.30;;;1.70;;
17363;SDS011;8799;43.594;13.526;2023-12-20T05:06:38;2.50;;;1.70;;
17363;SDS011;8799;43.594;13.526;2023-12-20T05:09:06;2.23;;;1.57;;
17363;SDS011;8799;43.594;13.526;2023-12-20T05:11:35;4.60;;;1.93;;
17363;SDS011;8799;43.594;13.526;2023-12-20T05:14:03;2.33;;;1.57;;
17363;SDS011;8799;43.594;13.526;2023-12-20T05:16:32;9.73;;;2.40;;
17363;SDS011;8799;43.594;13.526;2023-12-20T05:19:00;3.30;;;1.63;;
17363;SDS011;8799;43.594;13.526;2023-12-20T05:21:31;4.37;;;2.00;;
17363;SDS011;8799;43.594;13.526;2023-12-20T05:23:59;3.70;;;1.77;;
17363;SDS011;8799;43.594;13.526;2023-12-20T05:26:27;2.70;;;1.60;;
17363;SDS011;8799;43.594;13.526;2023-12-20T05:28:55;2.90;;;2.03;;
17363;SDS011;8799;43.594;13.526;2023-12-20T05:31:23;4.87;;;1.50;;
17363;SDS011;8799;43.594;13.526;2023-12-20T05:33:52;4.97;;;1.77;;
17363;SDS011;8799;43.594;13.526;2023-12-20T05:36:20;3.20;;;1.90;;
17363;SDS011;8799;43.594;13.526;2023-12-20T05:38:48;1.87;;;1.47;;
17363;SDS011;8799;43.594;13.526;2023-12-20T05:41:16;2.70;;;1.50;;
17363;SDS011;8799;43.594;13.526;2023-12-20T05:43:44;2.53;;;1.70;;
17363;SDS011;8799;43.594;13.526;2023-12-20T05:46:12;2.40;;;1.90;;
17363;SDS011;8799;43.594;13.526;2023-12-20T05:48:39;4.37;;;1.63;;
17363;SDS011;8799;43.594;13.526;2023-12-20T05:51:10;2.70;;;1.60;;
17363;SDS011;8799;43.594;13.526;2023-12-20T05:53:39;2.90;;;1.50;;
17363;SDS011;8799;43.594;13.526;2023-12-20T05:56:07;3.83;;;1.80;;
17363;SDS011;8799;43.594;13.526;2023-12-20T05:58:34;2.63;;;1.67;;
17363;SDS011;8799;43.594;13.526;2023-12-20T06:01:03;2.67;;;1.40;;
17363;SDS011;8799;43.594;13.526;2023-12-20T06:03:31;2.37;;;1.87;;
17363;SDS011;8799;43.594;13.526;2023-12-20T06:05:58;3.40;;;1.77;;
17363;SDS011;8799;43.594;13.526;2023-12-20T06:08:28;2.40;;;1.50;;
17363;SDS011;8799;43.594;13.526;2023-12-20T06:10:57;2.07;;;1.87;;
17363;SDS011;8799;43.594;13.526;2023-12-20T06:13:25;1.80;;;1.63;;
17363;SDS011;8799;43.594;13.526;2023-12-20T06:15:53;3.03;;;1.60;;
17363;SDS011;8799;43.594;13.526;2023-12-20T06:18:21;4.03;;;2.33;;
17363;SDS011;8799;43.594;13.526;2023-12-20T06:20:49;3.17;;;1.97;;
17363;SDS011;8799;43.594;13.526;2023-12-20T06:23:17;2.50;;;1.63;;
17363;SDS011;8799;43.594;13.526;2023-12-20T06:25:47;4.10;;;2.00;;
17363;SDS011;8799;43.594;13.526;2023-12-20T06:28:15;2.67;;;1.97;;
17363;SDS011;8799;43.594;13.526;2023-12-20T06:30:42;3.10;;;1.80;;
17363;SDS011;8799;43.594;13.526;2023-12-20T06:33:12;2.73;;;1.80;;
17363;SDS011;8799;43.594;13.526;2023-12-20T06:35:39;2.37;;;1.67;;
17363;SDS011;8799;43.594;13.526;2023-12-20T06:38:07;2.70;;;1.67;;
17363;SDS011;8799;43.594;13.526;2023-12-20T06:40:35;5.43;;;2.30;;
17363;SDS011;8799;43.594;13.526;2023-12-20T06:43:05;3.23;;;1.93;;
17363;SDS011;8799;43.594;13.526;2023-12-20T06:45:34;5.53;;;2.17;;
17363;SDS011;8799;43.594;13.526;2023-12-20T06:48:02;2.53;;;1.50;;
17363;SDS011;8799;43.594;13.526;2023-12-20T06:50:30;2.57;;;1.80;;
17363;SDS011;8799;43.594;13.526;2023-12-20T06:52:58;3.67;;;2.00;;
17363;SDS011;8799;43.594;13.526;2023-12-20T06:55:32;2.87;;;1.80;;
17363;SDS011;8799;43.594;13.526;2023-12-20T06:58:01;3.17;;;1.73;;
17363;SDS011;8799;43.594;13.526;2023-12-20T07:00:30;2.13;;;1.53;;
17363;SDS011;8799;43.594;13.526;2023-12-20T07:02:58;3.53;;;1.83;;
17363;SDS011;8799;43.594;13.526;2023-12-20T07:05:26;2.47;;;1.90;;
17363;SDS011;8799;43.594;13.526;2023-12-20T07:07:54;2.27;;;1.50;;
17363;SDS011;8799;43.594;13.526;2023-12-20T07:10:22;1.93;;;1.70;;
17363;SDS011;8799;43.594;13.526;2023-12-20T07:12:50;5.30;;;1.80;;
17363;SDS011;8799;43.594;13.526;2023-12-20T07:15:20;3.73;;;2.17;;
17363;SDS011;8799;43.594;13.526;2023-12-20T07:17:49;2.83;;;1.67;;
17363;SDS011;8799;43.594;13.526;2023-12-20T07:20:18;2.67;;;1.87;;
17363;SDS011;8799;43.594;13.526;2023-12-20T07:22:46;2.27;;;1.60;;
17363;SDS011;8799;43.594;13.526;2023-12-20T07:25:14;4.77;;;2.00;;
17363;SDS011;8799;43.594;13.526;2023-12-20T07:27:42;4.87;;;2.00;;
17363;SDS011;8799;43.594;13.526;2023-12-20T07:30:11;3.13;;;1.87;;
17363;SDS011;8799;43.594;13.526;2023-12-20T07:32:38;2.77;;;1.80;;
17363;SDS011;8799;43.594;13.526;2023-12-20T07:35:08;4.30;;;1.90;;
17363;SDS011;8799;43.594;13.526;2023-12-20T07:37:36;16.80;;;1.93;;
17363;SDS011;8799;43.594;13.526;2023-12-20T07:40:05;13.00;;;2.37;;
17363;SDS011;8799;43.594;13.526;2023-12-20T07:42:33;7.83;;;2.00;;
17363;SDS011;8799;43.594;13.526;2023-12-20T07:45:01;11.87;;;2.53;;
17363;SDS011;8799;43.594;13.526;2023-12-20T07:47:29;5.57;;;2.23;;
17363;SDS011;8799;43.594;13.526;2023-12-20T07:49:57;4.67;;;1.70;;
17363;SDS011;8799;43.594;13.526;2023-12-20T07:52:26;3.83;;;2.20;;
17363;SDS011;8799;43.594;13.526;2023-12-20T07:54:54;8.53;;;2.30;;
17363;SDS011;8799;43.594;13.526;2023-12-20T07:57:23;3.03;;;1.77;;
17363;SDS011;8799;43.594;13.526;2023-12-20T07:59:51;7.80;;;2.43;;
17363;SDS011;8799;43.594;13.526;2023-12-20T08:02:19;6.60;;;2.00;;
17363;SDS011;8799;43.594;13.526;2023-12-20T08:04:47;8.47;;;2.20;;
17363;SDS011;8799;43.594;13.526;2023-12-20T08:07:15;9.67;;;2.30;;
17363;SDS011;8799;43.594;13.526;2023-12-20T08:09:45;7.80;;;2.70;;
17363;SDS011;8799;43.594;13.526;2023-12-20T08:12:13;7.47;;;1.87;;
17363;SDS011;8799;43.594;13.526;2023-12-20T08:14:42;9.73;;;2.30;;
17363;SDS011;8799;43.594;13.526;2023-12-20T08:17:09;5.00;;;2.73;;
17363;SDS011;8799;43.594;13.526;2023-12-20T08:19:37;5.60;;;2.33;;
17363;SDS011;8799;43.594;13.526;2023-12-20T08:22:05;5.93;;;2.50;;
17363;SDS011;8799;43.594;13.526;2023-12-20T08:24:33;7.53;;;2.33;;
17363;SDS011;8799;43.594;13.526;2023-12-20T08:27:03;16.07;;;2.80;;
17363;SDS011;8799;43.594;13.526;2023-12-20T08:29:31;3.73;;;2.03;;
17363;SDS011;8799;43.594;13.526;2023-12-20T08:31:59;10.03;;;2.80;;
17363;SDS011;8799;43.594;13.526;2023-12-20T08:34:27;7.20;;;2.20;;
17363;SDS011;8799;43.594;13.526;2023-12-20T08:36:55;8.80;;;2.37;;
17363;SDS011;8799;43.594;13.526;2023-12-20T08:39:23;7.23;;;2.33;;
17363;SDS011;8799;43.594;13.526;2023-12-20T08:41:51;7.37;;;2.43;;
17363;SDS011;8799;43.594;13.526;2023-12-20T08:44:20;13.13;;;3.10;;
17363;SDS011;8799;43.594;13.526;2023-12-20T08:46:49;5.63;;;1.97;;
17363;SDS011;8799;43.594;13.526;2023-12-20T08:49:17;9.07;;;2.43;;
17363;SDS011;8799;43.594;13.526;2023-12-20T08:51:44;7.93;;;2.23;;
17363;SDS011;8799;43.594;13.526;2023-12-20T08:54:12;6.17;;;2.10;;
17363;SDS011;8799;43.594;13.526;2023-12-20T08:56:41;10.33;;;1.93;;
17363;SDS011;8799;43.594;13.526;2023-12-20T08:59:10;3.30;;;2.03;;
17363;SDS011;8799;43.594;13.526;2023-12-20T09:01:39;4.43;;;2.20;;
17363;SDS011;8799;43.594;13.526;2023-12-20T09:04:07;5.63;;;2.67;;
17363;SDS011;8799;43.594;13.526;2023-12-20T09:06:35;5.03;;;2.23;;
17363;SDS011;8799;43.594;13.526;2023-12-20T09:09:03;8.60;;;2.40;;
17363;SDS011;8799;43.594;13.526;2023-12-20T09:11:31;6.40;;;2.47;;
17363;SDS011;8799;43.594;13.526;2023-12-20T09:14:00;6.17;;;2.53;;
17363;SDS011;8799;43.594;13.526;2023-12-20T09:16:28;9.93;;;2.20;;
17363;SDS011;8799;43.594;13.526;2023-12-20T09:18:58;4.70;;;2.07;;
17363;SDS011;8799;43.594;13.526;2023-12-20T09:21:26;2.70;;;1.90;;
17363;SDS011;8799;43.594;13.526;2023-12-20T09:23:54;5.67;;;1.80;;
17363;SDS011;8799;43.594;13.526;2023-12-20T09:26:22;3.97;;;1.60;;
17363;SDS011;8799;43.594;13.526;2023-12-20T09:28:50;8.07;;;2.43;;
17363;SDS011;8799;43.594;13.526;2023-12-20T09:31:17;4.87;;;1.90;;
17363;SDS011;8799;43.594;13.526;2023-12-20T09:33:47;4.97;;;2.03;;
17363;SDS011;8799;43.594;13.526;2023-12-20T09:36:16;4.40;;;2.07;;
17363;SDS011;8799;43.594;13.526;2023-12-20T09:38:44;3.43;;;2.07;;
17363;SDS011;8799;43.594;13.526;2023-12-20T09:41:13;4.33;;;2.40;;
17363;SDS011;8799;43.594;13.526;2023-12-20T09:43:41;4.07;;;1.97;;
17363;SDS011;8799;43.594;13.526;2023-12-20T09:46:09;3.20;;;1.93;;
17363;SDS011;8799;43.594;13.526;2023-12-20T09:48:39;3.87;;;2.20;;
17363;SDS011;8799;43.594;13.526;2023-12-20T09:51:08;6.00;;;2.23;;
17363;SDS011;8799;43.594;13.526;2023-12-20T09:53:38;5.50;;;2.00;;
17363;SDS011;8799;43.594;13.526;2023-12-20T09:56:08;5.53;;;1.80;;
17363;SDS011;8799;43.594;13.526;2023-12-20T09:58:37;4.93;;;1.90;;
17363;SDS011;8799;43.594;13.526;2023-12-20T10:01:05;3.77;;;2.07;;
17363;SDS011;8799;43.594;13.526;2023-12-20T10:03:33;6.50;;;2.20;;
17363;SDS011;8799;43.594;13.526;2023-12-20T10:06:01;4.37;;;2.00;;
17363;SDS011;8799;43.594;13.526;2023-12-20T10:08:29;8.53;;;2.37;;
17363;SDS011;8799;43.594;13.526;2023-12-20T10:10:59;4.00;;;1.93;;
17363;SDS011;8799;43.594;13.526;2023-12-20T10:13:28;5.60;;;2.37;;
17363;SDS011;8799;43.594;13.526;2023-12-20T10:15:56;9.13;;;2.53;;
17363;SDS011;8799;43.594;13.526;2023-12-20T10:18:24;5.20;;;1.90;;
17363;SDS011;8799;43.594;13.526;2023-12-20T10:20:52;2.63;;;1.90;;
17363;SDS011;8799;43.594;13.526;2023-12-20T10:23:20;5.50;;;1.87;;
17363;SDS011;8799;43.594;13.526;2023-12-20T10:25:55;5.00;;;2.23;;
17363;SDS011;8799;43.594;13.526;2023-12-20T10:28:25;3.87;;;2.37;;
17363;SDS011;8799;43.594;13.526;2023-12-20T10:30:54;4.13;;;1.90;;
17363;SDS011;8799;43.594;13.526;2023-12-20T10:33:24;3.70;;;1.83;;
17363;SDS011;8799;43.594;13.526;2023-12-20T10:35:52;4.67;;;2.33;;
17363;SDS011;8799;43.594;13.526;2023-12-20T10:38:20;4.37;;;1.90;;
17363;SDS011;8799;43.594;13.526;2023-12-20T10:40:49;5.47;;;2.23;;
17363;SDS011;8799;43.594;13.526;2023-12-20T10:43:20;6.77;;;2.43;;
17363;SDS011;8799;43.594;13.526;2023-12-20T10:45:49;6.70;;;2.70;;
17363;SDS011;8799;43.594;13.526;2023-12-20T10:48:17;5.97;;;2.67;;
17363;SDS011;8799;43.594;13.526;2023-12-20T10:50:46;8.57;;;2.10;;
17363;SDS011;8799;43.594;13.526;2023-12-20T10:53:15;4.70;;;2.17;;
17363;SDS011;8799;43.594;13.526;2023-12-20T10:55:43;5.93;;;1.93;;
17363;SDS011;8799;43.594;13.526;2023-12-20T10:58:11;6.67;;;2.03;;
17363;SDS011;8799;43.594;13.526;2023-12-20T11:00:40;4.80;;;2.03;;
17363;SDS011;8799;43.594;13.526;2023-12-20T11:03:12;4.40;;;2.00;;
17363;SDS011;8799;43.594;13.526;2023-12-20T11:05:42;4.57;;;2.00;;
17363;SDS011;8799;43.594;13.526;2023-12-20T11:08:14;5.17;;;2.23;;
17363;SDS011;8799;43.594;13.526;2023-12-20T11:10:48;4.10;;;2.03;;
17363;SDS011;8799;43.594;13.526;2023-12-20T11:13:17;3.50;;;1.80;;
17363;SDS011;8799;43.594;13.526;2023-12-20T11:15:48;6.37;;;2.20;;
17363;SDS011;8799;43.594;13.526;2023-12-20T11:18:18;3.23;;;1.93;;
17363;SDS011;8799;43.594;13.526;2023-12-20T11:20:46;4.17;;;2.10;;
17363;SDS011;8799;43.594;13.526;2023-12-20T11:23:14;2.93;;;2.10;;
17363;SDS011;8799;43.594;13.526;2023-12-20T11:25:48;5.37;;;2.17;;
17363;SDS011;8799;43.594;13.526;2023-12-20T11:28:16;3.73;;;2.03;;
17363;SDS011;8799;43.594;13.526;2023-12-20T11:30:49;3.60;;;1.90;;
17363;SDS011;8799;43.594;13.526;2023-12-20T11:33:22;4.30;;;2.67;;
17363;SDS011;8799;43.594;13.526;2023-12-20T11:35:50;4.83;;;2.20;;
17363;SDS011;8799;43.594;13.526;2023-12-20T11:38:19;10.23;;;2.50;;
17363;SDS011;8799;43.594;13.526;2023-12-20T11:40:48;4.90;;;2.00;;
17363;SDS011;8799;43.594;13.526;2023-12-20T11:43:29;3.73;;;1.93;;
17363;SDS011;8799;43.594;13.526;2023-12-20T11:46:02;5.17;;;2.20;;
17363;SDS011;8799;43.594;13.526;2023-12-20T11:48:32;5.23;;;2.50;;
17363;SDS011;8799;43.594;13.526;2023-12-20T11:51:00;4.67;;;2.20;;
17363;SDS011;8799;43.594;13.526;2023-12-20T11:53:29;3.27;;;2.00;;
17363;SDS011;8799;43.594;13.526;2023-12-20T11:55:59;5.10;;;2.57;;
17363;SDS011;8799;43.594;13.526;2023-12-20T11:58:28;10.13;;;3.10;;
17363;SDS011;8799;43.594;13.526;2023-12-20T12:00:55;8.80;;;3.17;;
17363;SDS011;8799;43.594;13.526;2023-12-20T12:03:24;7.23;;;3.57;;
17363;SDS011;8799;43.594;13.526;2023-12-20T12:05:53;6.33;;;3.33;;
17363;SDS011;8799;43.594;13.526;2023-12-20T12:08:22;11.30;;;3.70;;
17363;SDS011;8799;43.594;13.526;2023-12-20T12:10:50;8.90;;;3.97;;
17363;SDS011;8799;43.594;13.526;2023-12-20T12:13:18;7.87;;;3.33;;
17363;SDS011;8799;43.594;13.526;2023-12-20T12:15:47;9.13;;;4.70;;
17363;SDS011;8799;43.594;13.526;2023-12-20T12:18:15;8.97;;;4.03;;
17363;SDS011;8799;43.594;13.526;2023-12-20T12:20:44;8.70;;;3.40;;
17363;SDS011;8799;43.594;13.526;2023-12-20T12:23:14;6.57;;;4.00;;
17363;SDS011;8799;43.594;13.526;2023-12-20T12:25:43;10.73;;;4.00;;
17363;SDS011;8799;43.594;13.526;2023-12-20T12:28:12;7.07;;;3.47;;
17363;SDS011;8799;43.594;13.526;2023-12-20T12:30:41;9.80;;;4.33;;
17363;SDS011;8799;43.594;13.526;2023-12-20T12:33:09;6.57;;;3.80;;
17363;SDS011;8799;43.594;13.526;2023-12-20T12:35:37;9.30;;;3.37;;
17363;SDS011;8799;43.594;13.526;2023-12-20T12:38:06;4.83;;;2.57;;
17363;SDS011;8799;43.594;13.526;2023-12-20T12:40:36;4.43;;;2.60;;
17363;SDS011;8799;43.594;13.526;2023-12-20T12:43:04;5.23;;;2.70;;
17363;SDS011;8799;43.594;13.526;2023-12-20T12:45:32;12.33;;;3.37;;
17363;SDS011;8799;43.594;13.526;2023-12-20T12:48:01;10.43;;;3.07;;
17363;SDS011;8799;43.594;13.526;2023-12-20T12:50:30;6.07;;;3.27;;
17363;SDS011;8799;43.594;13.526;2023-12-20T12:52:58;4.73;;;2.97;;
17363;SDS011;8799;43.594;13.526;2023-12-20T12:55:26;8.73;;;3.60;;
17363;SDS011;8799;43.594;13.526;2023-12-20T12:57:55;7.73;;;3.13;;
17363;SDS011;8799;43.594;13.526;2023-12-20T13:00:23;8.07;;;3.63;;
17363;SDS011;8799;43.594;13.526;2023-12-20T13:02:51;6.90;;;3.97;;
17363;SDS011;8799;43.594;13.526;2023-12-20T13:05:19;5.57;;;3.47;;
17363;SDS011;8799;43.594;13.526;2023-12-20T13:07:47;7.13;;;3.77;;
17363;SDS011;8799;43.594;13.526;2023-12-20T13:10:15;12.50;;;4.13;;
17363;SDS011;8799;43.594;13.526;2023-12-20T13:12:43;7.60;;;3.83;;
17363;SDS011;8799;43.594;13.526;2023-12-20T13:15:13;5.73;;;3.80;;
17363;SDS011;8799;43.594;13.526;2023-12-20T13:17:41;7.70;;;4.17;;
17363;SDS011;8799;43.594;13.526;2023-12-20T13:20:11;8.50;;;4.00;;
17363;SDS011;8799;43.594;13.526;2023-12-20T13:22:39;9.73;;;3.53;;
17363;SDS011;8799;43.594;13.526;2023-12-20T13:25:07;9.10;;;3.77;;
17363;SDS011;8799;43.594;13.526;2023-12-20T13:27:35;8.00;;;4.00;;
17363;SDS011;8799;43.594;13.526;2023-12-20T13:30:04;10.40;;;3.83;;
17363;SDS011;8799;43.594;13.526;2023-12-20T13:32:36;6.77;;;4.13;;
17363;SDS011;8799;43.594;13.526;2023-12-20T13:35:04;6.23;;;3.50;;
17363;SDS011;8799;43.594;13.526;2023-12-20T13:37:32;7.57;;;3.77;;
17363;SDS011;8799;43.594;13.526;2023-12-20T13:40:00;6.33;;;3.77;;
17363;SDS011;8799;43.594;13.526;2023-12-20T13:42:28;7.17;;;3.87;;
17363;SDS011;8799;43.594;13.526;2023-12-20T13:44:56;10.07;;;4.03;;
17363;SDS011;8799;43.594;13.526;2023-12-20T13:47:24;10.27;;;3.87;;
17363;SDS011;8799;43.594;13.526;2023-12-20T13:49:54;11.57;;;4.10;;
17363;SDS011;8799;43.594;13.526;2023-12-20T13:52:22;12.17;;;3.43;;
17363;SDS011;8799;43.594;13.526;2023-12-20T13:54:50;9.60;;;3.73;;
17363;SDS011;8799;43.594;13.526;2023-12-20T13:57:19;7.17;;;3.70;;
17363;SDS011;8799;43.594;13.526;2023-12-20T13:59:47;8.17;;;3.97;;
17363;SDS011;8799;43.594;13.526;2023-12-20T14:02:15;12.97;;;4.20;;
17363;SDS011;8799;43.594;13.526;2023-12-20T14:04:43;6.87;;;3.87;;
17363;SDS011;8799;43.594;13.526;2023-12-20T14:07:13;8.30;;;3.37;;
17363;SDS011;8799;43.594;13.526;2023-12-20T14:09:41;5.87;;;3.83;;
17363;SDS011;8799;43.594;13.526;2023-12-20T14:12:10;6.70;;;3.63;;
17363;SDS011;8799;43.594;13.526;2023-12-20T14:14:38;9.23;;;4.00;;
17363;SDS011;8799;43.594;13.526;2023-12-20T14:17:06;6.90;;;4.00;;
17363;SDS011;8799;43.594;13.526;2023-12-20T14:19:34;7.40;;;3.77;;
17363;SDS011;8799;43.594;13.526;2023-12-20T14:22:01;9.17;;;4.57;;
17363;SDS011;8799;43.594;13.526;2023-12-20T14:24:31;9.83;;;4.10;;
17363;SDS011;8799;43.594;13.526;2023-12-20T14:26:59;7.20;;;4.23;;
17363;SDS011;8799;43.594;13.526;2023-12-20T14:29:27;8.70;;;4.97;;
17363;SDS011;8799;43.594;13.526;2023-12-20T14:31:55;6.93;;;4.27;;
17363;SDS011;8799;43.594;13.526;2023-12-20T14:34:23;9.43;;;4.73;;
17363;SDS011;8799;43.594;13.526;2023-12-20T14:36:50;7.17;;;4.10;;
17363;SDS011;8799;43.594;13.526;2023-12-20T14:39:18;9.43;;;4.50;;
17363;SDS011;8799;43.594;13.526;2023-12-20T14:41:50;9.23;;;4.27;;
17363;SDS011;8799;43.594;13.526;2023-12-20T14:44:20;8.60;;;3.93;;
17363;SDS011;8799;43.594;13.526;2023-12-20T14:46:48;8.83;;;3.77;;
17363;SDS011;8799;43.594;13.526;2023-12-20T14:49:16;11.40;;;4.67;;
17363;SDS011;8799;43.594;13.526;2023-12-20T14:51:44;9.20;;;4.63;;
17363;SDS011;8799;43.594;13.526;2023-12-20T14:54:13;8.83;;;4.73;;